Terminal Aerodrome Forecast
Issued by NWS Portland, OR

Home | Current Version | Previous Version | Text Only | Print | Product List | Glossary On
Versions: 1 2 3 4 5 6 7 8 9 10 11 12 13 14 15 16 17 18 19 20 21 22 23 24 25 26 27 28 29 30 31 32
000
FTUS46 KPQR 272332
TAFEUG
TAF
KEUG 272332Z 2800/2824 24009KT P6SM VCSH SCT030 BKN060 OVC120
     FM280300 19005KT P6SM SCT050 OVC100
     FM281800 18009KT P6SM SCT035 BKN060 OVC090=

USA.gov is the U.S. government's official web portal to all federal, state and local government web resources and services.